sensor_id;sensor_type;location;lat;lon;timestamp;P1;durP1;ratioP1;P2;durP2;ratioP2
5199;SDS011;2619;47.868;11.892;2023-12-20T00:02:16;4.50;;;2.73;;
5199;SDS011;2619;47.868;11.892;2023-12-20T00:04:42;5.13;;;2.60;;
5199;SDS011;2619;47.868;11.892;2023-12-20T00:07:07;5.20;;;2.57;;
5199;SDS011;2619;47.868;11.892;2023-12-20T00:09:33;4.00;;;2.50;;
5199;SDS011;2619;47.868;11.892;2023-12-20T00:11:58;3.83;;;2.40;;
5199;SDS011;2619;47.868;11.892;2023-12-20T00:14:24;4.80;;;3.00;;
5199;SDS011;2619;47.868;11.892;2023-12-20T00:16:50;5.47;;;3.40;;
5199;SDS011;2619;47.868;11.892;2023-12-20T00:19:15;5.17;;;2.97;;
5199;SDS011;2619;47.868;11.892;2023-12-20T00:21:41;4.17;;;2.73;;
5199;SDS011;2619;47.868;11.892;2023-12-20T00:24:07;4.80;;;2.90;;
5199;SDS011;2619;47.868;11.892;2023-12-20T00:26:32;4.80;;;2.97;;
5199;SDS011;2619;47.868;11.892;2023-12-20T00:28:58;3.43;;;2.40;;
5199;SDS011;2619;47.868;11.892;2023-12-20T00:31:24;4.33;;;3.43;;
5199;SDS011;2619;47.868;11.892;2023-12-20T00:33:49;3.90;;;2.80;;
5199;SDS011;2619;47.868;11.892;2023-12-20T00:36:15;6.37;;;3.33;;
5199;SDS011;2619;47.868;11.892;2023-12-20T00:38:40;5.90;;;2.73;;
5199;SDS011;2619;47.868;11.892;2023-12-20T00:41:06;3.70;;;2.57;;
5199;SDS011;2619;47.868;11.892;2023-12-20T00:43:31;4.80;;;2.80;;
5199;SDS011;2619;47.868;11.892;2023-12-20T00:45:57;5.20;;;3.20;;
5199;SDS011;2619;47.868;11.892;2023-12-20T00:48:24;4.90;;;2.80;;
5199;SDS011;2619;47.868;11.892;2023-12-20T00:50:52;4.93;;;3.10;;
5199;SDS011;2619;47.868;11.892;2023-12-20T00:53:17;4.20;;;2.70;;
5199;SDS011;2619;47.868;11.892;2023-12-20T00:55:43;4.87;;;2.83;;
5199;SDS011;2619;47.868;11.892;2023-12-20T00:58:09;5.00;;;3.47;;
5199;SDS011;2619;47.868;11.892;2023-12-20T01:00:35;6.57;;;3.07;;
5199;SDS011;2619;47.868;11.892;2023-12-20T01:03:01;3.83;;;2.77;;
5199;SDS011;2619;47.868;11.892;2023-12-20T01:05:26;6.70;;;3.20;;
5199;SDS011;2619;47.868;11.892;2023-12-20T01:07:52;4.77;;;3.40;;
5199;SDS011;2619;47.868;11.892;2023-12-20T01:10:17;7.70;;;3.10;;
5199;SDS011;2619;47.868;11.892;2023-12-20T01:12:43;5.30;;;3.20;;
5199;SDS011;2619;47.868;11.892;2023-12-20T01:15:09;6.83;;;3.10;;
5199;SDS011;2619;47.868;11.892;2023-12-20T01:17:34;5.30;;;3.20;;
5199;SDS011;2619;47.868;11.892;2023-12-20T01:20:00;4.67;;;3.40;;
5199;SDS011;2619;47.868;11.892;2023-12-20T01:22:26;3.73;;;2.60;;
5199;SDS011;2619;47.868;11.892;2023-12-20T01:24:52;6.73;;;3.07;;
5199;SDS011;2619;47.868;11.892;2023-12-20T01:27:17;4.70;;;3.00;;
5199;SDS011;2619;47.868;11.892;2023-12-20T01:29:43;4.80;;;3.30;;
5199;SDS011;2619;47.868;11.892;2023-12-20T01:32:08;4.23;;;3.67;;
5199;SDS011;2619;47.868;11.892;2023-12-20T01:34:34;5.47;;;3.20;;
5199;SDS011;2619;47.868;11.892;2023-12-20T01:37:00;4.10;;;2.93;;
5199;SDS011;2619;47.868;11.892;2023-12-20T01:39:26;3.90;;;2.70;;
5199;SDS011;2619;47.868;11.892;2023-12-20T01:41:52;4.60;;;3.10;;
5199;SDS011;2619;47.868;11.892;2023-12-20T01:44:17;4.00;;;2.93;;
5199;SDS011;2619;47.868;11.892;2023-12-20T01:46:43;5.43;;;3.07;;
5199;SDS011;2619;47.868;11.892;2023-12-20T01:49:09;4.57;;;3.37;;
5199;SDS011;2619;47.868;11.892;2023-12-20T01:51:34;5.60;;;2.90;;
5199;SDS011;2619;47.868;11.892;2023-12-20T01:54:04;6.40;;;3.50;;
5199;SDS011;2619;47.868;11.892;2023-12-20T01:56:30;4.30;;;2.90;;
5199;SDS011;2619;47.868;11.892;2023-12-20T01:58:56;5.10;;;3.50;;
5199;SDS011;2619;47.868;11.892;2023-12-20T02:01:23;5.70;;;3.60;;
5199;SDS011;2619;47.868;11.892;2023-12-20T02:03:49;5.37;;;3.37;;
5199;SDS011;2619;47.868;11.892;2023-12-20T02:06:15;5.70;;;3.60;;
5199;SDS011;2619;47.868;11.892;2023-12-20T02:08:41;4.70;;;3.30;;
5199;SDS011;2619;47.868;11.892;2023-12-20T02:11:07;4.50;;;3.03;;
5199;SDS011;2619;47.868;11.892;2023-12-20T02:13:33;4.70;;;2.77;;
5199;SDS011;2619;47.868;11.892;2023-12-20T02:15:58;4.77;;;3.10;;
5199;SDS011;2619;47.868;11.892;2023-12-20T02:18:24;4.97;;;3.20;;
5199;SDS011;2619;47.868;11.892;2023-12-20T02:20:50;4.43;;;3.23;;
5199;SDS011;2619;47.868;11.892;2023-12-20T02:23:15;5.03;;;3.20;;
5199;SDS011;2619;47.868;11.892;2023-12-20T02:25:41;4.57;;;3.33;;
5199;SDS011;2619;47.868;11.892;2023-12-20T02:28:06;4.37;;;3.07;;
5199;SDS011;2619;47.868;11.892;2023-12-20T02:30:32;6.57;;;3.20;;
5199;SDS011;2619;47.868;11.892;2023-12-20T02:32:59;4.10;;;2.77;;
5199;SDS011;2619;47.868;11.892;2023-12-20T02:35:25;3.87;;;2.67;;
5199;SDS011;2619;47.868;11.892;2023-12-20T02:37:51;5.10;;;2.80;;
5199;SDS011;2619;47.868;11.892;2023-12-20T02:40:16;4.60;;;2.93;;
5199;SDS011;2619;47.868;11.892;2023-12-20T02:42:42;4.43;;;3.30;;
5199;SDS011;2619;47.868;11.892;2023-12-20T02:45:08;4.20;;;2.80;;
5199;SDS011;2619;47.868;11.892;2023-12-20T02:47:34;6.50;;;3.37;;
5199;SDS011;2619;47.868;11.892;2023-12-20T02:49:59;4.00;;;3.00;;
5199;SDS011;2619;47.868;11.892;2023-12-20T02:52:25;4.27;;;2.73;;
5199;SDS011;2619;47.868;11.892;2023-12-20T02:54:52;5.07;;;2.87;;
5199;SDS011;2619;47.868;11.892;2023-12-20T02:57:17;4.07;;;2.87;;
5199;SDS011;2619;47.868;11.892;2023-12-20T02:59:43;5.07;;;3.20;;
5199;SDS011;2619;47.868;11.892;2023-12-20T03:02:09;4.60;;;3.00;;
5199;SDS011;2619;47.868;11.892;2023-12-20T03:04:34;4.17;;;3.07;;
5199;SDS011;2619;47.868;11.892;2023-12-20T03:07:00;3.63;;;2.43;;
5199;SDS011;2619;47.868;11.892;2023-12-20T03:09:25;4.40;;;2.93;;
5199;SDS011;2619;47.868;11.892;2023-12-20T03:11:51;4.00;;;2.73;;
5199;SDS011;2619;47.868;11.892;2023-12-20T03:14:16;4.27;;;2.90;;
5199;SDS011;2619;47.868;11.892;2023-12-20T03:16:46;4.30;;;2.83;;
5199;SDS011;2619;47.868;11.892;2023-12-20T03:19:12;3.47;;;2.57;;
5199;SDS011;2619;47.868;11.892;2023-12-20T03:21:38;8.00;;;3.10;;
5199;SDS011;2619;47.868;11.892;2023-12-20T03:24:03;3.97;;;2.73;;
5199;SDS011;2619;47.868;11.892;2023-12-20T03:26:29;4.10;;;2.90;;
5199;SDS011;2619;47.868;11.892;2023-12-20T03:28:55;3.57;;;2.80;;
5199;SDS011;2619;47.868;11.892;2023-12-20T03:31:20;4.17;;;2.47;;
5199;SDS011;2619;47.868;11.892;2023-12-20T03:33:46;2.93;;;1.60;;
5199;SDS011;2619;47.868;11.892;2023-12-20T03:36:12;2.67;;;2.23;;
5199;SDS011;2619;47.868;11.892;2023-12-20T03:38:38;3.93;;;2.63;;
5199;SDS011;2619;47.868;11.892;2023-12-20T03:41:04;4.20;;;2.47;;
5199;SDS011;2619;47.868;11.892;2023-12-20T03:43:29;4.40;;;2.47;;
5199;SDS011;2619;47.868;11.892;2023-12-20T03:45:55;4.00;;;2.30;;
5199;SDS011;2619;47.868;11.892;2023-12-20T03:48:20;4.60;;;2.03;;
5199;SDS011;2619;47.868;11.892;2023-12-20T03:50:46;3.57;;;2.13;;
5199;SDS011;2619;47.868;11.892;2023-12-20T03:53:12;4.97;;;3.17;;
5199;SDS011;2619;47.868;11.892;2023-12-20T03:55:37;4.13;;;2.40;;
5199;SDS011;2619;47.868;11.892;2023-12-20T03:58:03;3.90;;;1.87;;
5199;SDS011;2619;47.868;11.892;2023-12-20T04:00:28;3.00;;;2.13;;
5199;SDS011;2619;47.868;11.892;2023-12-20T04:02:54;3.70;;;2.40;;
5199;SDS011;2619;47.868;11.892;2023-12-20T04:05:20;2.80;;;2.07;;
5199;SDS011;2619;47.868;11.892;2023-12-20T04:07:45;3.10;;;1.93;;
5199;SDS011;2619;47.868;11.892;2023-12-20T04:10:11;3.60;;;2.30;;
5199;SDS011;2619;47.868;11.892;2023-12-20T04:12:36;2.77;;;2.00;;
5199;SDS011;2619;47.868;11.892;2023-12-20T04:15:02;3.97;;;2.00;;
5199;SDS011;2619;47.868;11.892;2023-12-20T04:17:33;3.07;;;1.80;;
5199;SDS011;2619;47.868;11.892;2023-12-20T04:19:59;2.90;;;1.70;;
5199;SDS011;2619;47.868;11.892;2023-12-20T04:22:25;3.60;;;1.97;;
5199;SDS011;2619;47.868;11.892;2023-12-20T04:24:50;3.40;;;1.50;;
5199;SDS011;2619;47.868;11.892;2023-12-20T04:27:16;2.80;;;1.60;;
5199;SDS011;2619;47.868;11.892;2023-12-20T04:29:41;2.90;;;1.67;;
5199;SDS011;2619;47.868;11.892;2023-12-20T04:32:07;5.80;;;2.27;;
5199;SDS011;2619;47.868;11.892;2023-12-20T04:34:33;2.73;;;1.60;;
5199;SDS011;2619;47.868;11.892;2023-12-20T04:36:58;2.53;;;1.70;;
5199;SDS011;2619;47.868;11.892;2023-12-20T04:39:24;3.43;;;1.87;;
5199;SDS011;2619;47.868;11.892;2023-12-20T04:41:50;3.10;;;1.70;;
5199;SDS011;2619;47.868;11.892;2023-12-20T04:44:15;3.40;;;2.10;;
5199;SDS011;2619;47.868;11.892;2023-12-20T04:46:41;3.47;;;1.50;;
5199;SDS011;2619;47.868;11.892;2023-12-20T04:49:06;2.80;;;1.70;;
5199;SDS011;2619;47.868;11.892;2023-12-20T04:51:33;3.37;;;1.97;;
5199;SDS011;2619;47.868;11.892;2023-12-20T04:53:58;2.50;;;1.80;;
5199;SDS011;2619;47.868;11.892;2023-12-20T04:56:24;3.50;;;1.83;;
5199;SDS011;2619;47.868;11.892;2023-12-20T04:58:50;3.50;;;1.83;;
5199;SDS011;2619;47.868;11.892;2023-12-20T05:01:16;3.03;;;1.80;;
5199;SDS011;2619;47.868;11.892;2023-12-20T05:03:42;3.17;;;2.07;;
5199;SDS011;2619;47.868;11.892;2023-12-20T05:06:07;2.70;;;1.70;;
5199;SDS011;2619;47.868;11.892;2023-12-20T05:08:34;3.33;;;1.93;;
5199;SDS011;2619;47.868;11.892;2023-12-20T05:10:59;2.70;;;1.53;;
5199;SDS011;2619;47.868;11.892;2023-12-20T05:13:25;2.90;;;1.70;;
5199;SDS011;2619;47.868;11.892;2023-12-20T05:15:51;3.53;;;1.83;;
5199;SDS011;2619;47.868;11.892;2023-12-20T05:18:16;2.73;;;1.50;;
5199;SDS011;2619;47.868;11.892;2023-12-20T05:20:42;2.90;;;1.60;;
5199;SDS011;2619;47.868;11.892;2023-12-20T05:23:07;2.43;;;1.43;;
5199;SDS011;2619;47.868;11.892;2023-12-20T05:25:33;3.37;;;1.70;;
5199;SDS011;2619;47.868;11.892;2023-12-20T05:27:58;3.37;;;1.60;;
5199;SDS011;2619;47.868;11.892;2023-12-20T05:30:24;3.30;;;1.50;;
5199;SDS011;2619;47.868;11.892;2023-12-20T05:32:49;2.77;;;1.47;;
5199;SDS011;2619;47.868;11.892;2023-12-20T05:35:16;3.10;;;1.40;;
5199;SDS011;2619;47.868;11.892;2023-12-20T05:37:42;2.53;;;1.20;;
5199;SDS011;2619;47.868;11.892;2023-12-20T05:40:07;2.40;;;1.40;;
5199;SDS011;2619;47.868;11.892;2023-12-20T05:42:36;3.43;;;1.60;;
5199;SDS011;2619;47.868;11.892;2023-12-20T05:45:05;2.90;;;1.37;;
5199;SDS011;2619;47.868;11.892;2023-12-20T05:47:31;2.93;;;1.60;;
5199;SDS011;2619;47.868;11.892;2023-12-20T05:49:57;2.70;;;1.50;;
5199;SDS011;2619;47.868;11.892;2023-12-20T05:52:23;3.33;;;2.00;;
5199;SDS011;2619;47.868;11.892;2023-12-20T05:54:48;3.00;;;1.47;;
5199;SDS011;2619;47.868;11.892;2023-12-20T05:57:14;3.07;;;1.40;;
5199;SDS011;2619;47.868;11.892;2023-12-20T05:59:39;2.97;;;1.40;;
5199;SDS011;2619;47.868;11.892;2023-12-20T06:02:05;2.30;;;1.20;;
5199;SDS011;2619;47.868;11.892;2023-12-20T06:04:31;3.63;;;1.73;;
5199;SDS011;2619;47.868;11.892;2023-12-20T06:06:57;2.63;;;1.60;;
5199;SDS011;2619;47.868;11.892;2023-12-20T06:09:23;3.80;;;1.57;;
5199;SDS011;2619;47.868;11.892;2023-12-20T06:11:49;2.70;;;1.60;;
5199;SDS011;2619;47.868;11.892;2023-12-20T06:14:14;2.40;;;1.50;;
5199;SDS011;2619;47.868;11.892;2023-12-20T06:16:40;2.97;;;1.50;;
5199;SDS011;2619;47.868;11.892;2023-12-20T06:19:05;3.63;;;2.00;;
5199;SDS011;2619;47.868;11.892;2023-12-20T06:21:31;4.17;;;2.30;;
5199;SDS011;2619;47.868;11.892;2023-12-20T06:23:58;2.90;;;1.80;;
5199;SDS011;2619;47.868;11.892;2023-12-20T06:26:24;3.60;;;2.20;;
5199;SDS011;2619;47.868;11.892;2023-12-20T06:28:50;3.50;;;2.07;;
5199;SDS011;2619;47.868;11.892;2023-12-20T06:31:15;2.90;;;1.57;;
5199;SDS011;2619;47.868;11.892;2023-12-20T06:33:42;3.00;;;1.37;;
5199;SDS011;2619;47.868;11.892;2023-12-20T06:36:11;3.30;;;1.73;;
5199;SDS011;2619;47.868;11.892;2023-12-20T06:38:38;2.77;;;1.50;;
5199;SDS011;2619;47.868;11.892;2023-12-20T06:41:03;5.00;;;1.27;;
5199;SDS011;2619;47.868;11.892;2023-12-20T06:43:29;2.53;;;1.17;;
5199;SDS011;2619;47.868;11.892;2023-12-20T06:45:56;2.93;;;1.40;;
5199;SDS011;2619;47.868;11.892;2023-12-20T06:48:21;2.57;;;1.47;;
5199;SDS011;2619;47.868;11.892;2023-12-20T06:50:47;2.60;;;1.30;;
5199;SDS011;2619;47.868;11.892;2023-12-20T06:53:13;3.03;;;1.47;;
5199;SDS011;2619;47.868;11.892;2023-12-20T06:55:38;3.50;;;1.57;;
5199;SDS011;2619;47.868;11.892;2023-12-20T06:58:04;3.50;;;1.90;;
5199;SDS011;2619;47.868;11.892;2023-12-20T07:00:31;5.23;;;1.87;;
5199;SDS011;2619;47.868;11.892;2023-12-20T07:02:57;3.10;;;1.50;;
5199;SDS011;2619;47.868;11.892;2023-12-20T07:05:23;4.60;;;2.20;;
5199;SDS011;2619;47.868;11.892;2023-12-20T07:07:49;3.33;;;2.10;;
5199;SDS011;2619;47.868;11.892;2023-12-20T07:10:14;3.30;;;1.77;;
5199;SDS011;2619;47.868;11.892;2023-12-20T07:12:40;3.60;;;2.20;;
5199;SDS011;2619;47.868;11.892;2023-12-20T07:15:06;3.27;;;1.80;;
5199;SDS011;2619;47.868;11.892;2023-12-20T07:17:32;3.50;;;2.07;;
5199;SDS011;2619;47.868;11.892;2023-12-20T07:19:59;4.33;;;2.30;;
5199;SDS011;2619;47.868;11.892;2023-12-20T07:22:29;3.37;;;1.90;;
5199;SDS011;2619;47.868;11.892;2023-12-20T07:24:56;3.83;;;2.03;;
5199;SDS011;2619;47.868;11.892;2023-12-20T07:27:22;3.90;;;1.80;;
5199;SDS011;2619;47.868;11.892;2023-12-20T07:29:48;3.90;;;2.10;;
5199;SDS011;2619;47.868;11.892;2023-12-20T07:32:14;5.07;;;2.30;;
5199;SDS011;2619;47.868;11.892;2023-12-20T07:34:40;3.23;;;2.00;;
5199;SDS011;2619;47.868;11.892;2023-12-20T07:37:05;3.47;;;2.20;;
5199;SDS011;2619;47.868;11.892;2023-12-20T07:39:31;4.20;;;2.30;;
5199;SDS011;2619;47.868;11.892;2023-12-20T07:41:57;4.50;;;2.53;;
5199;SDS011;2619;47.868;11.892;2023-12-20T07:44:22;3.40;;;2.00;;
5199;SDS011;2619;47.868;11.892;2023-12-20T07:46:48;5.37;;;2.97;;
5199;SDS011;2619;47.868;11.892;2023-12-20T07:49:14;3.80;;;2.10;;
5199;SDS011;2619;47.868;11.892;2023-12-20T07:51:39;3.43;;;1.83;;
5199;SDS011;2619;47.868;11.892;2023-12-20T07:54:05;3.13;;;1.70;;
5199;SDS011;2619;47.868;11.892;2023-12-20T07:56:33;3.90;;;1.50;;
5199;SDS011;2619;47.868;11.892;2023-12-20T07:58:58;3.00;;;1.67;;
5199;SDS011;2619;47.868;11.892;2023-12-20T08:01:24;3.10;;;1.90;;
5199;SDS011;2619;47.868;11.892;2023-12-20T08:03:50;2.70;;;1.63;;
5199;SDS011;2619;47.868;11.892;2023-12-20T08:06:15;3.63;;;2.20;;
5199;SDS011;2619;47.868;11.892;2023-12-20T08:08:42;4.03;;;2.03;;
5199;SDS011;2619;47.868;11.892;2023-12-20T08:11:07;4.40;;;2.10;;
5199;SDS011;2619;47.868;11.892;2023-12-20T08:13:33;3.40;;;1.97;;
5199;SDS011;2619;47.868;11.892;2023-12-20T08:15:58;4.20;;;2.10;;
5199;SDS011;2619;47.868;11.892;2023-12-20T08:18:24;3.03;;;1.77;;
5199;SDS011;2619;47.868;11.892;2023-12-20T08:20:50;3.37;;;2.10;;
5199;SDS011;2619;47.868;11.892;2023-12-20T08:23:17;4.37;;;2.17;;
5199;SDS011;2619;47.868;11.892;2023-12-20T08:25:44;3.43;;;1.90;;
5199;SDS011;2619;47.868;11.892;2023-12-20T08:28:09;3.57;;;1.70;;
5199;SDS011;2619;47.868;11.892;2023-12-20T08:30:35;3.80;;;2.30;;
5199;SDS011;2619;47.868;11.892;2023-12-20T08:33:01;2.97;;;1.70;;
5199;SDS011;2619;47.868;11.892;2023-12-20T08:35:27;3.13;;;2.00;;
5199;SDS011;2619;47.868;11.892;2023-12-20T08:37:53;3.10;;;1.70;;
5199;SDS011;2619;47.868;11.892;2023-12-20T08:40:18;2.80;;;1.37;;
5199;SDS011;2619;47.868;11.892;2023-12-20T08:42:45;3.23;;;1.63;;
5199;SDS011;2619;47.868;11.892;2023-12-20T08:45:10;3.10;;;1.50;;
5199;SDS011;2619;47.868;11.892;2023-12-20T08:47:36;2.63;;;1.60;;
5199;SDS011;2619;47.868;11.892;2023-12-20T08:50:02;3.60;;;1.40;;
5199;SDS011;2619;47.868;11.892;2023-12-20T08:52:28;3.53;;;1.37;;
5199;SDS011;2619;47.868;11.892;2023-12-20T08:54:54;2.30;;;1.10;;
5199;SDS011;2619;47.868;11.892;2023-12-20T08:57:20;2.90;;;1.20;;
5199;SDS011;2619;47.868;11.892;2023-12-20T08:59:48;2.37;;;1.10;;
5199;SDS011;2619;47.868;11.892;2023-12-20T09:02:14;3.40;;;1.43;;
5199;SDS011;2619;47.868;11.892;2023-12-20T09:04:40;3.13;;;1.60;;
5199;SDS011;2619;47.868;11.892;2023-12-20T09:07:05;2.93;;;1.07;;
5199;SDS011;2619;47.868;11.892;2023-12-20T09:09:32;2.23;;;0.63;;
5199;SDS011;2619;47.868;11.892;2023-12-20T09:11:58;3.40;;;1.17;;
5199;SDS011;2619;47.868;11.892;2023-12-20T09:14:24;2.40;;;0.80;;
5199;SDS011;2619;47.868;11.892;2023-12-20T09:16:50;2.00;;;0.90;;
5199;SDS011;2619;47.868;11.892;2023-12-20T09:19:16;2.40;;;1.20;;
5199;SDS011;2619;47.868;11.892;2023-12-20T09:21:42;1.80;;;0.70;;
5199;SDS011;2619;47.868;11.892;2023-12-20T09:24:08;2.00;;;0.77;;
5199;SDS011;2619;47.868;11.892;2023-12-20T09:26:34;3.00;;;0.80;;
5199;SDS011;2619;47.868;11.892;2023-12-20T09:29:00;1.90;;;0.60;;
5199;SDS011;2619;47.868;11.892;2023-12-20T09:31:25;2.10;;;0.73;;
5199;SDS011;2619;47.868;11.892;2023-12-20T09:33:51;1.80;;;0.53;;
5199;SDS011;2619;47.868;11.892;2023-12-20T09:36:16;2.37;;;0.70;;
5199;SDS011;2619;47.868;11.892;2023-12-20T09:38:42;2.57;;;0.93;;
5199;SDS011;2619;47.868;11.892;2023-12-20T09:41:07;2.30;;;0.70;;
5199;SDS011;2619;47.868;11.892;2023-12-20T09:43:34;2.00;;;0.83;;
5199;SDS011;2619;47.868;11.892;2023-12-20T09:46:02;2.50;;;0.63;;
5199;SDS011;2619;47.868;11.892;2023-12-20T09:48:35;1.83;;;0.57;;
5199;SDS011;2619;47.868;11.892;2023-12-20T09:51:02;4.60;;;0.83;;
5199;SDS011;2619;47.868;11.892;2023-12-20T09:53:27;1.70;;;0.40;;
5199;SDS011;2619;47.868;11.892;2023-12-20T09:55:58;2.00;;;0.60;;
5199;SDS011;2619;47.868;11.892;2023-12-20T09:58:25;1.87;;;0.50;;
5199;SDS011;2619;47.868;11.892;2023-12-20T10:00:51;2.77;;;0.60;;
5199;SDS011;2619;47.868;11.892;2023-12-20T10:03:17;1.80;;;0.50;;
5199;SDS011;2619;47.868;11.892;2023-12-20T10:05:49;1.80;;;0.50;;
5199;SDS011;2619;47.868;11.892;2023-12-20T10:08:20;2.27;;;0.43;;
5199;SDS011;2619;47.868;11.892;2023-12-20T10:10:47;2.23;;;0.67;;
5199;SDS011;2619;47.868;11.892;2023-12-20T10:13:12;1.93;;;0.40;;
5199;SDS011;2619;47.868;11.892;2023-12-20T10:15:40;1.70;;;0.50;;
5199;SDS011;2619;47.868;11.892;2023-12-20T10:18:06;1.70;;;0.53;;
5199;SDS011;2619;47.868;11.892;2023-12-20T10:20:32;2.47;;;0.53;;
5199;SDS011;2619;47.868;11.892;2023-12-20T10:22:58;1.60;;;0.40;;
5199;SDS011;2619;47.868;11.892;2023-12-20T10:25:25;2.27;;;0.40;;
5199;SDS011;2619;47.868;11.892;2023-12-20T10:28:08;2.40;;;0.70;;
5199;SDS011;2619;47.868;11.892;2023-12-20T10:30:38;2.10;;;0.50;;
5199;SDS011;2619;47.868;11.892;2023-12-20T10:33:07;2.20;;;0.60;;
5199;SDS011;2619;47.868;11.892;2023-12-20T10:35:34;2.03;;;0.53;;
5199;SDS011;2619;47.868;11.892;2023-12-20T10:38:01;1.90;;;0.70;;
5199;SDS011;2619;47.868;11.892;2023-12-20T10:40:30;4.23;;;0.80;;
5199;SDS011;2619;47.868;11.892;2023-12-20T10:42:56;2.00;;;0.93;;
5199;SDS011;2619;47.868;11.892;2023-12-20T10:45:24;3.07;;;1.10;;
5199;SDS011;2619;47.868;11.892;2023-12-20T10:47:50;2.17;;;0.67;;
5199;SDS011;2619;47.868;11.892;2023-12-20T10:50:16;3.80;;;0.80;;
5199;SDS011;2619;47.868;11.892;2023-12-20T10:52:44;1.83;;;0.50;;
5199;SDS011;2619;47.868;11.892;2023-12-20T10:55:11;1.80;;;0.40;;
5199;SDS011;2619;47.868;11.892;2023-12-20T10:57:37;3.10;;;0.50;;
5199;SDS011;2619;47.868;11.892;2023-12-20T11:00:04;2.87;;;0.50;;
5199;SDS011;2619;47.868;11.892;2023-12-20T11:02:36;3.93;;;0.93;;
5199;SDS011;2619;47.868;11.892;2023-12-20T11:07:55;2.33;;;0.57;;
5199;SDS011;2619;47.868;11.892;2023-12-20T11:13:23;2.87;;;0.60;;
5199;SDS011;2619;47.868;11.892;2023-12-20T11:15:55;1.87;;;0.53;;
5199;SDS011;2619;47.868;11.892;2023-12-20T11:18:27;2.00;;;0.50;;
5199;SDS011;2619;47.868;11.892;2023-12-20T11:21:00;2.50;;;0.93;;
5199;SDS011;2619;47.868;11.892;2023-12-20T11:23:30;2.07;;;0.60;;
5199;SDS011;2619;47.868;11.892;2023-12-20T11:25:58;4.93;;;0.70;;
5199;SDS011;2619;47.868;11.892;2023-12-20T11:28:24;2.50;;;0.70;;
5199;SDS011;2619;47.868;11.892;2023-12-20T11:30:52;3.03;;;0.83;;
5199;SDS011;2619;47.868;11.892;2023-12-20T11:33:22;2.57;;;0.70;;
5199;SDS011;2619;47.868;11.892;2023-12-20T11:35:49;3.37;;;1.10;;
5199;SDS011;2619;47.868;11.892;2023-12-20T11:38:15;2.57;;;0.87;;
5199;SDS011;2619;47.868;11.892;2023-12-20T11:40:41;2.10;;;0.83;;
5199;SDS011;2619;47.868;11.892;2023-12-20T11:43:08;2.53;;;0.77;;
5199;SDS011;2619;47.868;11.892;2023-12-20T11:45:34;2.23;;;0.80;;
5199;SDS011;2619;47.868;11.892;2023-12-20T11:48:00;2.00;;;0.53;;
5199;SDS011;2619;47.868;11.892;2023-12-20T11:50:27;1.93;;;0.60;;
5199;SDS011;2619;47.868;11.892;2023-12-20T11:52:54;3.37;;;0.70;;
5199;SDS011;2619;47.868;11.892;2023-12-20T11:55:21;3.40;;;0.60;;
5199;SDS011;2619;47.868;11.892;2023-12-20T11:57:47;2.10;;;0.60;;
5199;SDS011;2619;47.868;11.892;2023-12-20T12:00:13;2.10;;;0.80;;
5199;SDS011;2619;47.868;11.892;2023-12-20T12:02:39;1.87;;;0.70;;
5199;SDS011;2619;47.868;11.892;2023-12-20T12:05:05;2.97;;;0.97;;
5199;SDS011;2619;47.868;11.892;2023-12-20T12:07:32;2.43;;;1.07;;
5199;SDS011;2619;47.868;11.892;2023-12-20T12:09:58;2.40;;;1.00;;
5199;SDS011;2619;47.868;11.892;2023-12-20T12:12:24;2.10;;;0.70;;
5199;SDS011;2619;47.868;11.892;2023-12-20T12:14:50;2.50;;;0.77;;
5199;SDS011;2619;47.868;11.892;2023-12-20T12:17:16;1.87;;;0.63;;
5199;SDS011;2619;47.868;11.892;2023-12-20T12:19:42;2.00;;;0.63;;
5199;SDS011;2619;47.868;11.892;2023-12-20T12:22:09;2.00;;;0.67;;
5199;SDS011;2619;47.868;11.892;2023-12-20T12:24:48;1.90;;;0.83;;
5199;SDS011;2619;47.868;11.892;2023-12-20T12:27:14;2.17;;;0.67;;
5199;SDS011;2619;47.868;11.892;2023-12-20T12:29:41;1.93;;;0.67;;
5199;SDS011;2619;47.868;11.892;2023-12-20T12:32:24;2.67;;;1.30;;
5199;SDS011;2619;47.868;11.892;2023-12-20T12:34:50;2.23;;;1.03;;
5199;SDS011;2619;47.868;11.892;2023-12-20T12:37:16;2.23;;;0.70;;
5199;SDS011;2619;47.868;11.892;2023-12-20T12:39:42;3.00;;;0.83;;
5199;SDS011;2619;47.868;11.892;2023-12-20T12:42:07;1.80;;;0.57;;
5199;SDS011;2619;47.868;11.892;2023-12-20T12:44:33;1.87;;;0.67;;
5199;SDS011;2619;47.868;11.892;2023-12-20T12:46:58;2.20;;;1.00;;
5199;SDS011;2619;47.868;11.892;2023-12-20T12:49:24;2.00;;;0.70;;
5199;SDS011;2619;47.868;11.892;2023-12-20T12:51:50;2.60;;;0.80;;
5199;SDS011;2619;47.868;11.892;2023-12-20T12:54:16;2.20;;;0.97;;
5199;SDS011;2619;47.868;11.892;2023-12-20T12:56:43;1.97;;;0.60;;
5199;SDS011;2619;47.868;11.892;2023-12-20T12:59:09;2.10;;;0.60;;
5199;SDS011;2619;47.868;11.892;2023-12-20T13:01:35;2.00;;;0.60;;
5199;SDS011;2619;47.868;11.892;2023-12-20T13:04:00;1.87;;;0.60;;
5199;SDS011;2619;47.868;11.892;2023-12-20T13:06:28;2.60;;;0.80;;
5199;SDS011;2619;47.868;11.892;2023-12-20T13:08:54;2.20;;;0.80;;
5199;SDS011;2619;47.868;11.892;2023-12-20T13:11:20;2.67;;;0.80;;
5199;SDS011;2619;47.868;11.892;2023-12-20T13:13:46;3.23;;;1.17;;
5199;SDS011;2619;47.868;11.892;2023-12-20T13:16:12;5.03;;;0.87;;
5199;SDS011;2619;47.868;11.892;2023-12-20T13:18:38;3.00;;;1.37;;
5199;SDS011;2619;47.868;11.892;2023-12-20T13:21:07;3.43;;;1.40;;
5199;SDS011;2619;47.868;11.892;2023-12-20T13:23:33;2.30;;;0.90;;
5199;SDS011;2619;47.868;11.892;2023-12-20T13:25:59;4.43;;;1.10;;
5199;SDS011;2619;47.868;11.892;2023-12-20T13:28:24;7.13;;;1.90;;
5199;SDS011;2619;47.868;11.892;2023-12-20T13:30:50;2.70;;;1.30;;
5199;SDS011;2619;47.868;11.892;2023-12-20T13:33:16;2.23;;;0.90;;
5199;SDS011;2619;47.868;11.892;2023-12-20T13:35:41;2.53;;;1.30;;
5199;SDS011;2619;47.868;11.892;2023-12-20T13:38:07;2.80;;;1.40;;
5199;SDS011;2619;47.868;11.892;2023-12-20T13:40:33;4.60;;;1.13;;
5199;SDS011;2619;47.868;11.892;2023-12-20T13:42:58;2.40;;;1.10;;
5199;SDS011;2619;47.868;11.892;2023-12-20T13:45:24;2.97;;;1.30;;
5199;SDS011;2619;47.868;11.892;2023-12-20T13:47:50;2.30;;;1.10;;
5199;SDS011;2619;47.868;11.892;2023-12-20T13:50:16;3.10;;;1.13;;
5199;SDS011;2619;47.868;11.892;2023-12-20T13:52:41;2.10;;;1.17;;
5199;SDS011;2619;47.868;11.892;2023-12-20T13:55:07;2.40;;;1.20;;
5199;SDS011;2619;47.868;11.892;2023-12-20T13:57:33;4.03;;;1.67;;
5199;SDS011;2619;47.868;11.892;2023-12-20T13:59:59;3.50;;;1.60;;
5199;SDS011;2619;47.868;11.892;2023-12-20T14:02:24;2.73;;;1.50;;
5199;SDS011;2619;47.868;11.892;2023-12-20T14:04:51;2.60;;;1.40;;
5199;SDS011;2619;47.868;11.892;2023-12-20T14:07:17;2.40;;;1.30;;
5199;SDS011;2619;47.868;11.892;2023-12-20T14:09:43;2.10;;;1.10;;
5199;SDS011;2619;47.868;11.892;2023-12-20T14:12:10;2.70;;;1.50;;
5199;SDS011;2619;47.868;11.892;2023-12-20T14:14:36;2.40;;;1.20;;
5199;SDS011;2619;47.868;11.892;2023-12-20T14:17:02;2.63;;;1.43;;
5199;SDS011;2619;47.868;11.892;2023-12-20T14:19:28;2.40;;;1.40;;
5199;SDS011;2619;47.868;11.892;2023-12-20T14:21:54;3.33;;;1.53;;
5199;SDS011;2619;47.868;11.892;2023-12-20T14:24:20;2.43;;;1.23;;
5199;SDS011;2619;47.868;11.892;2023-12-20T14:26:45;2.80;;;1.57;;
5199;SDS011;2619;47.868;11.892;2023-12-20T14:29:11;5.23;;;1.40;;
5199;SDS011;2619;47.868;11.892;2023-12-20T14:31:36;2.97;;;1.50;;
5199;SDS011;2619;47.868;11.892;2023-12-20T14:34:03;3.97;;;1.47;;
5199;SDS011;2619;47.868;11.892;2023-12-20T14:36:29;2.90;;;1.47;;
5199;SDS011;2619;47.868;11.892;2023-12-20T14:38:58;3.40;;;1.80;;
5199;SDS011;2619;47.868;11.892;2023-12-20T14:41:24;4.83;;;2.47;;
5199;SDS011;2619;47.868;11.892;2023-12-20T14:43:50;3.13;;;1.70;;
5199;SDS011;2619;47.868;11.892;2023-12-20T14:46:17;7.63;;;4.17;;
5199;SDS011;2619;47.868;11.892;2023-12-20T14:48:43;15.50;;;6.57;;
5199;SDS011;2619;47.868;11.892;2023-12-20T14:51:09;3.90;;;1.70;;
5199;SDS011;2619;47.868;11.892;2023-12-20T14:53:35;3.00;;;1.83;;
5199;SDS011;2619;47.868;11.892;2023-12-20T14:56:02;2.87;;;1.60;;
5199;SDS011;2619;47.868;11.892;2023-12-20T14:58:31;3.30;;;1.80;;
5199;SDS011;2619;47.868;11.892;2023-12-20T15:00:57;3.50;;;2.40;;